createdAt,value
2019-01-17T00:00:42.690Z,86.82
2019-01-17T00:01:41.711Z,87.11
2019-01-17T00:02:39.629Z,87.39
2019-01-17T00:03:42.176Z,86.91
2019-01-17T00:04:43.057Z,86.72
2019-01-17T00:05:43.789Z,87.30
2019-01-17T00:06:42.856Z,86.91
2019-01-17T00:07:42.645Z,87.20
2019-01-17T00:08:42.560Z,87.30
2019-01-17T00:09:43.032Z,86.54
2019-01-17T00:10:43.096Z,86.91
2019-01-17T00:11:45.283Z,86.54
2019-01-17T00:12:41.256Z,86.63
2019-01-17T00:13:43.333Z,86.35
2019-01-17T00:14:44.352Z,86.25
2019-01-17T00:15:45.606Z,86.25
2019-01-17T00:16:43.611Z,86.25
2019-01-17T00:17:44.180Z,86.72
2019-01-17T00:18:42.279Z,86.72
2019-01-17T00:19:42.408Z,86.54
2019-01-17T00:20:45.624Z,86.44
2019-01-17T00:21:45.310Z,86.44
2019-01-17T00:22:46.735Z,86.44
2019-01-17T00:23:44.397Z,86.44
2019-01-17T00:24:46.341Z,86.63
2019-01-17T00:25:43.472Z,86.72
2019-01-17T00:26:44.156Z,86.72
2019-01-17T00:27:46.464Z,86.25
2019-01-17T00:28:47.940Z,86.44
2019-01-17T00:29:43.971Z,85.97
2019-01-17T00:30:46.768Z,86.54
2019-01-17T00:31:47.235Z,85.97
2019-01-17T00:32:47.802Z,86.16
2019-01-17T00:33:47.198Z,86.25
2019-01-17T00:34:48.305Z,85.97
2019-01-17T00:35:48.566Z,86.25
2019-01-17T00:36:48.343Z,85.97
2019-01-17T00:37:49.900Z,86.25
2019-01-17T00:38:50.585Z,85.49
2019-01-17T00:39:45.746Z,85.78
2019-01-17T00:40:49.544Z,85.59
2019-01-17T00:41:50.512Z,85.78
2019-01-17T00:42:52.378Z,85.59
2019-01-17T00:43:51.541Z,85.68
2019-01-17T00:44:50.238Z,85.68
2019-01-17T00:45:51.443Z,85.68
2019-01-17T00:46:49.808Z,85.49
2019-01-17T00:47:49.477Z,85.21
2019-01-17T00:48:51.314Z,85.21
2019-01-17T00:49:47.224Z,85.21
2019-01-17T00:50:51.865Z,85.21
2019-01-17T00:51:51.274Z,85.49
2019-01-17T00:52:51.163Z,85.25
2019-01-17T00:53:52.311Z,85.40
2019-01-17T00:54:52.685Z,85.30
2019-01-17T00:55:52.375Z,85.59
2019-01-17T00:56:53.867Z,85.59
2019-01-17T00:57:52.975Z,85.53
2019-01-17T00:58:52.526Z,85.35
2019-01-17T00:59:48.899Z,85.63
2019-01-17T01:00:52.241Z,85.44
2019-01-17T01:01:52.952Z,85.25
2019-01-17T01:02:53.221Z,85.53
2019-01-17T01:03:53.302Z,85.25
2019-01-17T01:04:49.741Z,85.63
2019-01-17T01:05:54.379Z,85.44
2019-01-17T01:06:54.057Z,85.35
2019-01-17T01:07:53.937Z,85.72
2019-01-17T01:08:53.691Z,85.82
2019-01-17T01:09:52.240Z,85.63
2019-01-17T01:10:54.482Z,86.11
2019-01-17T01:11:54.113Z,86.20
2019-01-17T01:12:53.565Z,86.68
2019-01-17T01:13:55.495Z,86.30
2019-01-17T01:14:50.960Z,86.01
2019-01-17T01:15:54.960Z,86.11
2019-01-17T01:16:54.882Z,86.01
2019-01-17T01:17:54.327Z,86.49
2019-01-17T01:18:57.565Z,86.49
2019-01-17T01:19:54.371Z,87.34
2019-01-17T01:20:51.834Z,87.05
2019-01-17T01:21:54.847Z,87.43
2019-01-17T01:22:52.159Z,87.43
2019-01-17T01:23:53.110Z,87.53
2019-01-17T01:24:52.421Z,87.34
2019-01-17T01:25:57.407Z,87.62
2019-01-17T01:26:52.713Z,88.01
2019-01-17T01:27:52.875Z,87.72
2019-01-17T01:29:04.436Z,87.82
2019-01-17T01:29:54.051Z,87.72
2019-01-17T01:30:53.349Z,87.72
2019-01-17T01:31:57.591Z,87.77
2019-01-17T01:32:57.656Z,87.72
2019-01-17T01:33:53.793Z,87.77
2019-01-17T01:34:53.969Z,88.10
2019-01-17T01:35:58.483Z,88.15
2019-01-17T01:36:54.301Z,88.39
2019-01-17T01:37:55.226Z,88.43
2019-01-17T01:38:54.573Z,87.96
2019-01-17T01:39:58.191Z,88.72
2019-01-17T01:40:54.956Z,88.72
2019-01-17T01:41:55.128Z,88.34
2019-01-17T01:42:55.703Z,88.24
2019-01-17T01:43:55.438Z,89.10
2019-01-17T01:44:58.396Z,88.91
2019-01-17T01:45:55.785Z,88.81
2019-01-17T01:46:56.022Z,89.10
2019-01-17T01:47:56.065Z,88.62
2019-01-17T01:49:00.660Z,89.10
2019-01-17T01:49:58.555Z,88.91
2019-01-17T01:51:00.321Z,89.10
2019-01-17T01:51:58.683Z,88.62
2019-01-17T01:52:56.845Z,88.91
2019-01-17T01:53:56.999Z,88.91
2019-01-17T01:55:00.744Z,88.62
2019-01-17T01:55:57.328Z,88.91
2019-01-17T01:56:57.524Z,88.91
2019-01-17T01:57:57.663Z,88.91
2019-01-17T01:58:57.836Z,89.00
2019-01-17T01:59:58.019Z,88.95
2019-01-17T02:00:58.205Z,89.14
2019-01-17T02:01:58.370Z,88.48
2019-01-17T02:03:02.015Z,88.76
2019-01-17T02:03:58.712Z,88.76
2019-01-17T02:05:00.583Z,88.86
2019-01-17T02:05:59.058Z,88.10
2019-01-17T02:07:02.794Z,88.57
2019-01-17T02:07:59.355Z,88.76
2019-01-17T02:09:01.927Z,88.29
2019-01-17T02:10:03.315Z,88.39
2019-01-17T02:11:02.598Z,88.29
2019-01-17T02:12:02.512Z,88.67
2019-01-17T02:13:02.403Z,88.39
2019-01-17T02:14:00.140Z,88.67
2019-01-17T02:15:02.332Z,88.39
2019-01-17T02:16:00.409Z,89.05
2019-01-17T02:17:00.637Z,89.05
2019-01-17T02:18:00.685Z,89.29
2019-01-17T02:19:03.884Z,89.58
2019-01-17T02:20:01.037Z,89.53
2019-01-17T02:21:01.223Z,89.67
2019-01-17T02:22:01.433Z,90.28
2019-01-17T02:23:01.621Z,90.66
2019-01-17T02:24:04.035Z,90.38
2019-01-17T02:25:05.358Z,90.76
2019-01-17T02:26:02.143Z,90.09
2019-01-17T02:27:04.364Z,90.43
2019-01-17T02:28:03.067Z,90.52
2019-01-17T02:29:02.651Z,90.76
2019-01-17T02:30:06.000Z,90.62
2019-01-17T02:31:05.269Z,90.81
2019-01-17T02:32:07.303Z,90.24
2019-01-17T02:33:03.275Z,90.62
2019-01-17T02:34:03.479Z,90.62
2019-01-17T02:35:03.524Z,91.19
2019-01-17T02:36:05.107Z,90.47
2019-01-17T02:37:05.552Z,90.66
2019-01-17T02:38:04.567Z,90.57
2019-01-17T02:39:05.703Z,90.19
2019-01-17T02:40:04.345Z,90.43
2019-01-17T02:41:06.913Z,90.57
2019-01-17T02:42:04.615Z,90.47
2019-01-17T02:43:04.771Z,91.04
2019-01-17T02:44:04.946Z,91.19
2019-01-17T02:45:05.113Z,91.04
2019-01-17T02:46:05.273Z,91.71
2019-01-17T02:47:05.431Z,91.56
2019-01-17T02:48:07.918Z,91.66
2019-01-17T02:49:07.133Z,92.23
2019-01-17T02:50:07.857Z,92.23
2019-01-17T02:51:07.711Z,93.18
2019-01-17T02:52:08.742Z,93.08
2019-01-17T02:53:15.158Z,92.99
2019-01-17T02:54:06.901Z,93.18
2019-01-17T02:55:06.623Z,93.37
2019-01-17T02:56:06.795Z,93.84
2019-01-17T02:57:09.600Z,93.27
2019-01-17T02:58:07.163Z,93.56
2019-01-17T02:59:08.890Z,93.60
2019-01-17T03:00:07.511Z,93.32
2019-01-17T03:01:07.830Z,93.13
2019-01-17T03:02:07.777Z,92.94
2019-01-17T03:03:09.874Z,92.85
2019-01-17T03:04:09.273Z,93.13
2019-01-17T03:05:08.257Z,93.13
2019-01-17T03:06:08.727Z,93.32
2019-01-17T03:07:08.635Z,92.85
2019-01-17T03:08:09.854Z,92.28
2019-01-17T03:09:10.878Z,92.47
2019-01-17T03:10:10.043Z,92.28
2019-01-17T03:11:11.321Z,92.37
2019-01-17T03:12:09.336Z,92.66
2019-01-17T03:13:09.524Z,93.23
2019-01-17T03:14:11.470Z,92.56
2019-01-17T03:15:11.285Z,92.47
2019-01-17T03:16:11.174Z,92.28
2019-01-17T03:17:11.854Z,92.28
2019-01-17T03:18:12.231Z,92.37
2019-01-17T03:19:11.175Z,92.37
2019-01-17T03:20:12.859Z,92.18
2019-01-17T03:21:11.250Z,92.37
2019-01-17T03:22:10.924Z,91.99
2019-01-17T03:23:11.130Z,91.99
2019-01-17T03:24:13.663Z,91.99
2019-01-17T03:25:11.404Z,92.66
2019-01-17T03:26:14.849Z,92.09
2019-01-17T03:27:11.737Z,92.47
2019-01-17T03:28:11.902Z,92.28
2019-01-17T03:29:12.071Z,92.18
2019-01-17T03:30:12.291Z,92.28
2019-01-17T03:31:16.728Z,92.09
2019-01-17T03:32:24.404Z,92.28
2019-01-17T03:33:16.765Z,92.56
2019-01-17T03:34:23.940Z,92.09
2019-01-17T03:35:16.619Z,92.47
2019-01-17T03:36:16.089Z,92.66
2019-01-17T03:37:17.993Z,92.47
2019-01-17T03:38:17.335Z,92.66
2019-01-17T03:39:17.048Z,92.47
2019-01-17T03:40:16.711Z,92.28
2019-01-17T03:41:14.147Z,93.13
2019-01-17T03:42:16.471Z,93.41
2019-01-17T03:43:15.934Z,92.85
2019-01-17T03:44:15.998Z,92.85
2019-01-17T03:45:14.598Z,93.32
2019-01-17T03:46:14.779Z,93.13
2019-01-17T03:47:15.072Z,92.75
2019-01-17T03:48:15.253Z,92.85
2019-01-17T03:49:15.387Z,92.94
2019-01-17T03:50:15.575Z,93.23
2019-01-17T03:51:15.636Z,93.41
2019-01-17T03:52:15.822Z,92.94
2019-01-17T03:53:16.011Z,93.13
2019-01-17T03:54:16.170Z,93.13
2019-01-17T03:55:16.250Z,92.94
2019-01-17T03:56:21.631Z,92.85
2019-01-17T03:57:16.828Z,93.23
2019-01-17T03:58:16.768Z,92.85
2019-01-17T03:59:17.003Z,93.23
2019-01-17T04:00:17.288Z,93.13
2019-01-17T04:01:17.362Z,92.75
2019-01-17T04:02:17.474Z,92.85
2019-01-17T04:03:17.569Z,93.04
2019-01-17T04:04:17.761Z,92.47
2019-01-17T04:05:17.845Z,92.66
2019-01-17T04:06:18.157Z,92.47
2019-01-17T04:07:18.255Z,92.28
2019-01-17T04:08:18.489Z,92.18
2019-01-17T04:09:18.562Z,92.66
2019-01-17T04:10:18.759Z,92.28
2019-01-17T04:11:18.970Z,93.04
2019-01-17T04:12:19.190Z,93.13
2019-01-17T04:13:19.366Z,92.85
2019-01-17T04:14:19.640Z,92.94
2019-01-17T04:15:19.786Z,93.23
2019-01-17T04:16:19.895Z,92.94
2019-01-17T04:17:20.159Z,93.23
2019-01-17T04:18:20.187Z,93.23
2019-01-17T04:19:20.244Z,93.80
2019-01-17T04:20:20.428Z,93.60
2019-01-17T04:21:20.764Z,93.89
2019-01-17T04:22:20.839Z,93.99
2019-01-17T04:23:20.968Z,93.70
2019-01-17T04:24:21.138Z,93.80
2019-01-17T04:25:21.215Z,93.70
2019-01-17T04:26:21.468Z,93.89
2019-01-17T04:27:21.586Z,93.89
2019-01-17T04:28:21.844Z,94.08
2019-01-17T04:29:21.932Z,93.60
2019-01-17T04:30:22.218Z,93.89
2019-01-17T04:31:22.302Z,93.60
2019-01-17T04:32:22.549Z,93.80
2019-01-17T04:33:22.704Z,93.75
2019-01-17T04:34:22.808Z,93.04
2019-01-17T04:35:22.983Z,93.51
2019-01-17T04:36:23.178Z,93.60
2019-01-17T04:37:23.184Z,94.08
2019-01-17T04:38:23.285Z,93.60
2019-01-17T04:39:23.384Z,93.84
2019-01-17T04:40:23.477Z,93.99
2019-01-17T04:41:23.763Z,93.99
2019-01-17T04:42:23.807Z,93.89
2019-01-17T04:43:24.016Z,94.27
2019-01-17T04:44:24.254Z,95.03
2019-01-17T04:45:24.330Z,94.93
2019-01-17T04:46:24.540Z,94.74
2019-01-17T04:47:24.748Z,94.65
2019-01-17T04:48:24.943Z,95.22
2019-01-17T04:49:25.106Z,94.74
2019-01-17T04:50:25.245Z,94.93
2019-01-17T04:51:25.303Z,95.03
2019-01-17T04:52:25.579Z,95.60
2019-01-17T04:53:25.645Z,95.51
2019-01-17T04:54:25.732Z,95.79
2019-01-17T04:55:26.058Z,95.60
2019-01-17T04:56:26.284Z,95.89
2019-01-17T04:57:26.931Z,96.55
2019-01-17T04:58:26.518Z,96.55
2019-01-17T04:59:26.755Z,96.26
2019-01-17T05:00:26.907Z,96.55
2019-01-17T05:01:27.082Z,96.36
2019-01-17T05:02:27.294Z,96.36
2019-01-17T05:03:27.492Z,96.74
2019-01-17T05:04:27.660Z,97.12
2019-01-17T05:05:27.812Z,97.12
2019-01-17T05:06:27.924Z,96.93
2019-01-17T05:07:28.147Z,97.50
2019-01-17T05:08:28.323Z,97.12
2019-01-17T05:09:28.412Z,98.07
2019-01-17T05:10:28.865Z,98.16
2019-01-17T05:11:28.792Z,97.88
2019-01-17T05:12:28.901Z,97.92
2019-01-17T05:13:29.025Z,97.83
2019-01-17T05:14:29.123Z,98.16
2019-01-17T05:15:29.214Z,98.26
2019-01-17T05:16:29.426Z,98.35
2019-01-17T05:17:29.693Z,98.07
2019-01-17T05:18:29.707Z,98.35
2019-01-17T05:19:29.868Z,98.73
2019-01-17T05:20:30.905Z,98.45
2019-01-17T05:21:30.127Z,99.58
2019-01-17T05:22:30.301Z,98.73
2019-01-17T05:23:30.437Z,99.40
2019-01-17T05:24:30.660Z,99.40
2019-01-17T05:25:30.730Z,99.40
2019-01-17T05:26:30.848Z,99.40
2019-01-17T05:27:30.912Z,99.68
2019-01-17T05:28:31.168Z,99.49
2019-01-17T05:29:31.261Z,98.92
2019-01-17T05:30:31.506Z,99.21
2019-01-17T05:31:31.620Z,99.40
2019-01-17T05:32:36.716Z,99.40
2019-01-17T05:33:31.794Z,99.49
2019-01-17T05:34:38.964Z,99.40
2019-01-17T05:35:32.084Z,99.40
2019-01-17T05:36:32.304Z,99.30
2019-01-17T05:37:32.541Z,99.40
2019-01-17T05:38:32.599Z,99.02
2019-01-17T05:39:32.829Z,99.40
2019-01-17T05:40:33.033Z,99.40
2019-01-17T05:41:33.333Z,99.58
2019-01-17T05:42:33.440Z,99.40
2019-01-17T05:43:33.773Z,99.30
2019-01-17T05:44:33.788Z,99.40
2019-01-17T05:45:34.019Z,99.97
2019-01-17T05:46:33.961Z,99.58
2019-01-17T05:47:34.243Z,99.68
2019-01-17T05:48:34.310Z,99.49
2019-01-17T05:49:34.567Z,99.40
2019-01-17T05:50:34.727Z,99.77
2019-01-17T05:51:34.787Z,99.87
2019-01-17T05:52:35.188Z,99.97
2019-01-17T05:53:35.133Z,99.87
2019-01-17T05:54:35.228Z,99.99
2019-01-17T05:55:35.507Z,99.99
2019-01-17T05:56:35.637Z,99.99
2019-01-17T05:57:35.801Z,99.99
2019-01-17T05:58:35.964Z,99.99
2019-01-17T05:59:36.085Z,99.99
2019-01-17T06:00:36.246Z,99.99
2019-01-17T06:01:36.335Z,99.99
2019-01-17T06:02:36.416Z,99.99
2019-01-17T06:03:36.614Z,99.77
2019-01-17T06:04:36.816Z,99.99
2019-01-17T06:05:37.141Z,99.99
2019-01-17T06:06:37.300Z,99.99
2019-01-17T06:07:42.119Z,99.99
2019-01-17T06:08:37.607Z,99.99
2019-01-17T06:09:37.702Z,99.99
2019-01-17T06:10:37.892Z,99.99
2019-01-17T06:11:38.028Z,99.99
2019-01-17T06:12:38.215Z,99.99
2019-01-17T06:13:39.920Z,99.99
2019-01-17T06:14:38.525Z,99.99
2019-01-17T06:15:38.648Z,99.99
2019-01-17T06:16:38.721Z,99.99
2019-01-17T06:17:39.053Z,99.99
2019-01-17T06:18:41.237Z,99.99
2019-01-17T06:19:44.509Z,99.99
2019-01-17T06:20:41.291Z,99.99
2019-01-17T06:21:41.535Z,99.99
2019-01-17T06:22:39.688Z,99.99
2019-01-17T06:23:39.808Z,99.99
2019-01-17T06:24:40.032Z,99.99
2019-01-17T06:25:40.110Z,99.99
2019-01-17T06:26:40.173Z,99.99
2019-01-17T06:27:40.368Z,99.99
2019-01-17T06:28:40.743Z,99.99
2019-01-17T06:29:40.890Z,99.99
2019-01-17T06:30:40.896Z,99.99
2019-01-17T06:31:41.210Z,99.99
2019-01-17T06:32:41.169Z,99.99
2019-01-17T06:33:41.267Z,99.99
2019-01-17T06:34:43.942Z,99.99
2019-01-17T06:35:41.524Z,99.99
2019-01-17T06:36:41.758Z,99.99
2019-01-17T06:37:41.814Z,99.99
2019-01-17T06:38:42.025Z,99.99
2019-01-17T06:39:42.380Z,99.99
2019-01-17T06:40:42.407Z,99.99
2019-01-17T06:41:42.552Z,99.99
2019-01-17T06:42:42.655Z,99.99
2019-01-17T06:43:42.749Z,99.99
2019-01-17T06:44:42.967Z,99.99
2019-01-17T06:45:43.202Z,99.99
2019-01-17T06:46:46.988Z,99.99
2019-01-17T06:47:43.401Z,99.99
2019-01-17T06:48:43.617Z,99.99
2019-01-17T06:49:45.194Z,99.99
2019-01-17T06:50:43.850Z,99.99
2019-01-17T06:51:44.051Z,99.99
2019-01-17T06:52:44.435Z,99.99
2019-01-17T06:53:44.384Z,99.99
2019-01-17T06:54:44.739Z,99.99
2019-01-17T06:55:44.743Z,99.99
2019-01-17T06:56:44.813Z,99.99
2019-01-17T06:57:45.029Z,99.99
2019-01-17T06:58:45.177Z,99.99
2019-01-17T06:59:45.399Z,99.99
2019-01-17T07:00:45.477Z,99.99
2019-01-17T07:01:45.897Z,99.99
2019-01-17T07:02:47.409Z,99.99
2019-01-17T07:03:46.062Z,99.99
2019-01-17T07:04:46.183Z,99.99
2019-01-17T07:05:46.417Z,99.99
2019-01-17T07:06:46.450Z,99.99
2019-01-17T07:07:48.474Z,99.99
2019-01-17T07:08:46.850Z,99.99
2019-01-17T07:09:46.950Z,99.99
2019-01-17T07:10:47.037Z,99.99
2019-01-17T07:11:47.395Z,99.99
2019-01-17T07:12:47.445Z,99.99
2019-01-17T07:13:47.843Z,99.99
2019-01-17T07:14:49.679Z,99.99
2019-01-17T07:15:49.928Z,99.99
2019-01-17T07:16:50.889Z,99.99
2019-01-17T07:17:48.321Z,99.99
2019-01-17T07:18:48.522Z,99.99
2019-01-17T07:19:48.754Z,99.99
2019-01-17T07:20:50.784Z,99.99
2019-01-17T07:21:50.028Z,99.99
2019-01-17T07:23:05.254Z,99.99
2019-01-17T07:23:51.740Z,99.99
2019-01-17T07:24:49.410Z,99.99
2019-01-17T07:25:52.907Z,99.99
2019-01-17T07:26:51.564Z,99.99
2019-01-17T07:27:52.437Z,99.99
2019-01-17T07:29:15.581Z,99.99
2019-01-17T07:29:51.744Z,99.99
2019-01-17T07:30:59.205Z,99.99
2019-01-17T07:31:54.620Z,99.99
2019-01-17T07:32:50.723Z,99.99
2019-01-17T07:33:50.921Z,99.99
2019-01-17T07:34:51.061Z,99.99
2019-01-17T07:35:51.218Z,99.99
2019-01-17T07:36:51.379Z,99.99
2019-01-17T07:37:51.553Z,99.99
2019-01-17T07:38:51.738Z,99.99
2019-01-17T07:39:51.873Z,99.99
2019-01-17T07:40:52.044Z,99.99
2019-01-17T07:41:52.212Z,99.99
2019-01-17T07:42:52.427Z,99.99
2019-01-17T07:43:52.537Z,99.99
2019-01-17T07:44:52.713Z,99.99
2019-01-17T07:45:52.953Z,99.99
2019-01-17T07:46:53.053Z,99.99
2019-01-17T07:47:53.223Z,99.99
2019-01-17T07:48:54.457Z,99.99
2019-01-17T07:49:53.508Z,99.92
2019-01-17T07:50:53.681Z,99.99
2019-01-17T07:51:53.864Z,99.99
2019-01-17T07:52:54.024Z,99.99
2019-01-17T07:53:54.192Z,99.99
2019-01-17T07:54:54.355Z,99.99
2019-01-17T07:55:57.128Z,99.99
2019-01-17T07:56:54.712Z,99.99
2019-01-17T07:57:54.853Z,99.99
2019-01-17T07:58:55.033Z,99.54
2019-01-17T07:59:55.193Z,99.64
2019-01-17T08:00:55.426Z,99.26
2019-01-17T08:01:55.545Z,99.44
2019-01-17T08:02:56.295Z,99.73
2019-01-17T08:03:55.899Z,99.64
2019-01-17T08:04:58.053Z,99.16
2019-01-17T08:05:56.272Z,98.88
2019-01-17T08:06:56.817Z,99.54
2019-01-17T08:07:56.600Z,99.26
2019-01-17T08:08:56.808Z,99.73
2019-01-17T08:09:56.959Z,99.73
2019-01-17T08:10:59.073Z,99.44
2019-01-17T08:11:57.277Z,99.44
2019-01-17T08:12:57.584Z,99.54
2019-01-17T08:13:58.776Z,99.92
2019-01-17T08:14:57.825Z,99.99
2019-01-17T08:15:58.138Z,99.44
2019-01-17T08:16:58.186Z,99.44
2019-01-17T08:17:58.392Z,99.73
2019-01-17T08:19:00.742Z,99.44
2019-01-17T08:19:58.683Z,99.26
2019-01-17T08:20:58.838Z,98.88
2019-01-17T08:21:59.030Z,98.79
2019-01-17T08:22:59.173Z,98.79
2019-01-17T08:23:59.349Z,98.79
2019-01-17T08:24:59.541Z,99.26
2019-01-17T08:25:59.686Z,99.64
2019-01-17T08:26:59.870Z,99.64
2019-01-17T08:28:00.042Z,99.26
2019-01-17T08:29:00.222Z,99.44
2019-01-17T08:30:00.377Z,99.26
2019-01-17T08:31:00.588Z,99.44
2019-01-17T08:32:00.735Z,99.26
2019-01-17T08:33:00.924Z,99.44
2019-01-17T08:34:02.368Z,98.69
2019-01-17T08:35:01.263Z,98.97
2019-01-17T08:36:01.441Z,98.88
2019-01-17T08:37:02.989Z,99.16
2019-01-17T08:38:01.812Z,99.35
2019-01-17T08:39:02.042Z,98.88
2019-01-17T08:40:03.237Z,98.69
2019-01-17T08:41:02.355Z,98.88
2019-01-17T08:42:02.518Z,98.50
2019-01-17T08:43:02.707Z,98.79
2019-01-17T08:44:02.897Z,99.07
2019-01-17T08:45:02.979Z,97.83
2019-01-17T08:46:03.151Z,99.07
2019-01-17T08:47:03.350Z,98.79
2019-01-17T08:48:03.515Z,98.69
2019-01-17T08:49:03.686Z,98.69
2019-01-17T08:50:04.287Z,98.79
2019-01-17T08:51:05.220Z,98.31
2019-01-17T08:52:05.211Z,98.88
2019-01-17T08:53:06.310Z,98.79
2019-01-17T08:54:05.148Z,98.69
2019-01-17T08:55:06.391Z,97.83
2019-01-17T08:56:05.863Z,98.40
2019-01-17T08:57:08.003Z,97.92
2019-01-17T08:58:05.333Z,98.21
2019-01-17T08:59:06.596Z,98.50
2019-01-17T09:00:05.942Z,98.40
2019-01-17T09:01:05.719Z,98.31
2019-01-17T09:02:05.895Z,98.79
2019-01-17T09:03:06.162Z,97.92
2019-01-17T09:04:06.274Z,97.74
2019-01-17T09:05:06.368Z,97.55
2019-01-17T09:06:06.500Z,98.02
2019-01-17T09:07:06.826Z,98.02
2019-01-17T09:08:09.897Z,98.12
2019-01-17T09:09:43.422Z,97.17
2019-01-17T09:10:09.639Z,97.36
2019-01-17T09:14:54.079Z,98.12
2019-01-17T09:15:17.567Z,97.83
2019-01-17T09:16:20.670Z,98.45
2019-01-17T09:17:16.938Z,98.50
2019-01-17T09:18:18.654Z,98.12
2019-01-17T09:22:38.803Z,96.50
2019-01-17T09:31:36.850Z,96.03
2019-01-17T09:32:28.341Z,96.22
2019-01-17T09:33:55.619Z,95.79
2019-01-17T09:35:28.525Z,96.36
2019-01-17T09:36:29.269Z,96.55
2019-01-17T09:37:28.207Z,95.60
2019-01-17T09:38:30.772Z,95.51
2019-01-17T09:39:30.819Z,95.51
2019-01-17T09:40:32.988Z,95.12
2019-01-17T09:41:28.631Z,94.56
2019-01-17T09:42:27.430Z,94.93
2019-01-17T09:43:27.601Z,95.12
2019-01-17T09:44:27.815Z,94.65
2019-01-17T09:45:27.871Z,94.65
2019-01-17T09:46:28.063Z,94.08
2019-01-17T09:47:28.225Z,94.46
2019-01-17T09:48:31.595Z,94.46
2019-01-17T09:49:30.344Z,94.46
2019-01-17T09:50:56.998Z,94.65
2019-01-17T09:51:30.523Z,94.56
2019-01-17T09:52:28.876Z,95.03
2019-01-17T09:55:14.761Z,95.12
2019-01-17T09:56:14.824Z,94.27
2019-01-17T09:57:06.850Z,94.08
2019-01-17T09:58:04.059Z,93.70
2019-01-17T09:59:27.006Z,93.70
2019-01-17T10:00:03.811Z,93.70
2019-01-17T10:01:01.903Z,93.41
2019-01-17T10:02:02.061Z,93.23
2019-01-17T10:03:02.333Z,93.51
2019-01-17T10:04:05.940Z,93.51
2019-01-17T10:06:51.865Z,93.89
2019-01-17T10:07:44.456Z,93.79
2019-01-17T10:08:43.694Z,93.32
2019-01-17T10:09:55.711Z,93.04
2019-01-17T10:10:44.809Z,93.13
2019-01-17T10:11:45.474Z,92.94
2019-01-17T10:12:44.849Z,92.85
2019-01-17T10:13:44.062Z,93.13
2019-01-17T10:14:44.079Z,93.13
2019-01-17T10:15:55.309Z,92.56
2019-01-17T10:16:45.222Z,92.94
2019-01-17T10:17:44.578Z,92.94
2019-01-17T10:18:46.668Z,93.13
2019-01-17T10:19:44.466Z,93.04
2019-01-17T10:21:00.367Z,93.13
2019-01-17T10:21:44.811Z,93.79
2019-01-17T10:22:44.784Z,93.70
2019-01-17T10:23:47.657Z,93.41
2019-01-17T10:24:49.064Z,92.75
2019-01-17T10:25:45.159Z,92.99
2019-01-17T10:26:45.491Z,93.18
2019-01-17T10:27:45.629Z,93.18
2019-01-17T10:28:45.904Z,92.99
2019-01-17T10:30:13.569Z,92.41
2019-01-17T10:31:16.300Z,91.56
2019-01-17T10:32:15.470Z,90.80
2019-01-17T10:32:46.360Z,90.80
2019-01-17T10:33:46.559Z,90.33
2019-01-17T10:34:49.645Z,90.42
2019-01-17T10:35:48.665Z,90.23
2019-01-17T10:36:50.787Z,90.42
2019-01-17T10:37:54.640Z,90.52
2019-01-17T10:38:50.231Z,89.66
2019-01-17T10:39:49.380Z,89.75
2019-01-17T10:40:47.566Z,89.85
2019-01-17T10:41:58.941Z,89.85
2019-01-17T10:42:54.633Z,89.28
2019-01-17T10:43:50.593Z,89.18
2019-01-17T10:44:48.610Z,88.94
2019-01-17T10:45:52.247Z,89.04
2019-01-17T10:46:48.791Z,89.04
2019-01-17T10:47:49.054Z,88.42
2019-01-17T10:48:49.006Z,88.71
2019-01-17T10:49:57.073Z,88.52
2019-01-17T10:54:00.895Z,88.04
2019-01-17T10:55:28.153Z,87.95
2019-01-17T10:55:57.607Z,87.47
2019-01-17T10:57:01.008Z,86.90
2019-01-17T10:57:56.978Z,87.38
2019-01-17T10:58:55.314Z,87.95
2019-01-17T10:59:55.496Z,87.95
2019-01-17T11:00:58.934Z,88.13
2019-01-17T11:02:17.828Z,88.23
2019-01-17T11:03:02.085Z,88.61
2019-01-17T11:04:00.438Z,88.80
2019-01-17T11:04:57.959Z,88.04
2019-01-17T11:05:56.380Z,87.95
2019-01-17T11:06:56.731Z,87.66
2019-01-17T11:07:56.695Z,87.80
2019-01-17T11:08:57.027Z,87.42
2019-01-17T11:09:57.037Z,86.61
2019-01-17T11:10:57.264Z,86.43
2019-01-17T11:12:01.609Z,86.52
2019-01-17T11:12:59.396Z,86.66
2019-01-17T11:14:21.400Z,86.43
2019-01-17T11:15:00.029Z,86.80
2019-01-17T11:15:59.995Z,86.43
2019-01-17T11:17:00.009Z,87.47
2019-01-17T11:17:59.337Z,87.19
2019-01-17T11:19:02.564Z,86.90
2019-01-17T11:19:58.666Z,87.47
2019-01-17T11:21:02.769Z,88.23
2019-01-17T11:22:02.968Z,87.76
2019-01-17T11:23:00.906Z,88.04
2019-01-17T11:23:59.315Z,88.42
2019-01-17T11:24:59.395Z,88.61
2019-01-17T11:29:07.705Z,90.56
2019-01-17T11:30:43.367Z,90.94
2019-01-17T11:31:42.218Z,91.61
2019-01-17T11:32:10.496Z,91.89
2019-01-17T11:33:29.612Z,92.46
2019-01-17T11:34:30.733Z,92.75
2019-01-17T11:42:29.558Z,93.70
2019-01-17T11:43:19.579Z,94.08
2019-01-17T11:44:17.814Z,93.32
2019-01-17T11:45:17.829Z,92.85
2019-01-17T11:46:23.114Z,93.04
2019-01-17T11:47:45.561Z,93.70
2019-01-17T11:49:54.176Z,93.32
2019-01-17T11:51:03.862Z,92.94
2019-01-17T11:53:26.324Z,92.37
2019-01-17T11:56:11.759Z,90.75
2019-01-17T11:58:34.104Z,90.37
2019-01-17T11:59:34.953Z,90.61
2019-01-17T12:00:28.723Z,90.00
2019-01-17T12:01:28.891Z,89.75
2019-01-17T12:02:29.132Z,87.61
2019-01-17T12:03:31.886Z,86.51
2019-01-17T12:04:29.232Z,85.28
2019-01-17T12:05:29.446Z,84.80
2019-01-17T12:06:29.569Z,84.52
2019-01-17T12:07:29.784Z,84.42
2019-01-17T12:08:29.882Z,83.51
2019-01-17T12:09:30.063Z,83.61
2019-01-17T12:10:30.322Z,83.55
2019-01-17T12:11:30.582Z,81.36
2019-01-17T12:12:30.571Z,80.02
2019-01-17T12:13:30.830Z,79.64
2019-01-17T12:14:30.957Z,79.83
2019-01-17T12:15:31.310Z,79.17
2019-01-17T12:16:31.363Z,79.83
2019-01-17T12:17:31.484Z,80.18
2019-01-17T12:18:31.798Z,80.36
2019-01-17T12:19:32.008Z,81.23
2019-01-17T12:20:31.824Z,80.94
2019-01-17T12:21:31.921Z,80.80
2019-01-17T12:22:32.021Z,80.04
2019-01-17T12:23:32.167Z,80.80
2019-01-17T12:24:32.234Z,81.43
2019-01-17T12:25:32.366Z,82.19
2019-01-17T12:26:32.559Z,82.19
2019-01-17T12:27:32.791Z,82.38
2019-01-17T12:28:32.934Z,83.04
2019-01-17T12:29:33.113Z,82.95
2019-01-17T12:30:33.163Z,82.95
2019-01-17T12:31:33.415Z,82.19
2019-01-17T12:32:33.562Z,82.48
2019-01-17T12:33:33.720Z,82.67
2019-01-17T12:34:33.996Z,82.38
2019-01-17T12:35:34.232Z,83.04
2019-01-17T12:36:34.468Z,82.67
2019-01-17T12:37:34.340Z,82.28
2019-01-17T12:38:34.518Z,82.57
2019-01-17T12:39:35.077Z,82.86
2019-01-17T12:40:35.204Z,83.23
2019-01-17T12:41:35.115Z,82.67
2019-01-17T12:42:35.174Z,83.14
2019-01-17T12:43:35.462Z,82.95
2019-01-17T12:44:35.482Z,82.48
2019-01-17T12:45:35.582Z,82.86
2019-01-17T12:46:35.823Z,82.95
2019-01-17T12:47:35.996Z,82.38
2019-01-17T12:48:36.331Z,82.57
2019-01-17T12:49:36.286Z,82.19
2019-01-17T12:50:36.542Z,82.28
2019-01-17T12:51:36.636Z,82.67
2019-01-17T12:52:36.823Z,82.38
2019-01-17T12:53:36.933Z,82.19
2019-01-17T12:54:37.117Z,82.57
2019-01-17T12:55:37.461Z,82.00
2019-01-17T12:56:37.844Z,82.67
2019-01-17T12:57:37.688Z,82.19
2019-01-17T12:58:37.713Z,82.48
2019-01-17T12:59:38.013Z,82.19
2019-01-17T13:00:38.023Z,82.28
2019-01-17T13:01:38.149Z,81.52
2019-01-17T13:02:38.773Z,82.28
2019-01-17T13:03:38.522Z,82.28
2019-01-17T13:04:38.667Z,82.76
2019-01-17T13:05:38.813Z,83.81
2019-01-17T13:06:38.917Z,83.71
2019-01-17T13:07:40.876Z,82.76
2019-01-17T13:08:39.203Z,82.00
2019-01-17T13:09:39.329Z,81.90
2019-01-17T13:10:39.507Z,82.00
2019-01-17T13:11:39.613Z,82.09
2019-01-17T13:12:39.685Z,82.48
2019-01-17T13:13:39.855Z,82.19
2019-01-17T13:14:40.054Z,83.00
2019-01-17T13:15:40.199Z,83.62
2019-01-17T13:16:40.386Z,83.04
2019-01-17T13:17:40.570Z,82.86
2019-01-17T13:18:40.736Z,83.42
2019-01-17T13:19:41.002Z,83.04
2019-01-17T13:20:41.060Z,81.90
2019-01-17T13:21:41.233Z,82.48
2019-01-17T13:22:41.494Z,82.00
2019-01-17T13:23:41.556Z,82.00
2019-01-17T13:24:41.747Z,82.00
2019-01-17T13:25:41.903Z,82.00
2019-01-17T13:26:42.087Z,82.32
2019-01-17T13:27:42.289Z,82.28
2019-01-17T13:28:42.454Z,81.24
2019-01-17T13:29:42.629Z,81.05
2019-01-17T13:30:42.796Z,81.05
2019-01-17T13:31:42.962Z,81.43
2019-01-17T13:32:43.142Z,81.24